South Walden, Vermont
Current Conditions -  °F | °C
As of 8:54 AM on Sunday 21 Dec 2014 (Local Time) from KMVL Reporting Station
Overcast Overcast  
Wind Chill: 13°   Ceiling: 3400
Heat Index: 13°   Visibility: 8mi
Dew Point: 10°   Wind: 0mph
Humidity: 88%   Direction: NA
Pressure: 30.35"   Gusts: NA
Location:  44.5213°N, 72.3604°W
Report Text: KMVL 211354Z AUTO 00000KT 8SM OVC034 M11/M12 A3035 RMK AO2 SLP294 T11061122 TSNO
Loading
Personal Weather Stations






























Interactive Weather Map New forecast layout! Learn more

10-Day Weather Forecast

Advertisements
Track Severe Weather on mobile